^^
Datos históricos de la estación: Murcia-Puente Tocinos
Diario Informe para Octubre 28, 2019 Unidades:  Métrico    Inglés   Ambas
Diario Semanal Mensual Anual Configurable
  Máximo: Mínimo: Media:
Temperatura: 22.2 °C 13.2 °C 17.4 °C
Punto de rocio: 16.0 °C 12.0 °C 14.4 °C
Humedad: 93% 67% 84%
Velocidad viento: 9.7km/h 0.0km/h 4.1km/h
Racha viento: 16.1km/h - -
Viento- - SSW
Presión: 1019.2 hPa 1014.8 hPa -
Precipitación: 0.3 mm    
Historical Graphs
 
 
Tabla de datos para Octubre 28, 2019
Hora Temperatura Punto de rocio Presión Viento Velocidad viento Racha viento Humedad Intensidad lluvia(por hora) Nubes
00:00 16.0 °C 14.6 °C 1019.2 hPa Calm     91% 0.0 mm FEW
00:05 16.1 °C 14.6 °C 1019.2 hPa Calm     91% 0.0 mm CLR
00:10 16.1 °C 14.4 °C 1019.1 hPa Calm     90% 0.0 mm CLR
00:15 16.0 °C 14.3 °C 1019.1 hPa Calm   3.2 km/h 90% 0.0 mm CLR
00:20 16.0 °C 14.3 °C 1019.1 hPa Calm   4.8 km/h 90% 0.0 mm FEW
00:25 15.9 °C 14.3 °C 1019.0 hPa SSW 1.6 km/h 8.0 km/h 90% 0.0 mm FEW
00:30 15.9 °C 14.3 °C 1019.0 hPa South 1.6 km/h 8.0 km/h 90% 0.0 mm FEW
00:35 15.9 °C 14.3 °C 1019.0 hPa SSE 3.2 km/h 8.0 km/h 90% 0.0 mm FEW
00:40 15.9 °C 14.3 °C 1018.9 hPa South 3.2 km/h 8.0 km/h 90% 0.0 mm FEW
00:45 15.9 °C 14.4 °C 1018.9 hPa South 3.2 km/h 4.8 km/h 91% 0.0 mm FEW
00:50 15.9 °C 14.4 °C 1018.9 hPa SSW 3.2 km/h 3.2 km/h 91% 0.0 mm CLR
00:55 15.9 °C 14.4 °C 1018.8 hPa SSW 1.6 km/h 4.8 km/h 91% 0.0 mm CLR
01:00 15.9 °C 14.4 °C 1018.8 hPa SSW 1.6 km/h 4.8 km/h 91% 0.0 mm FEW
01:05 15.9 °C 14.4 °C 1018.8 hPa SSW 1.6 km/h   91% 0.0 mm CLR
01:10 15.8 °C 14.2 °C 1018.7 hPa SSW 1.6 km/h   90% 0.0 mm CLR
01:15 15.7 °C 14.1 °C 1018.7 hPa Calm     90% 0.0 mm CLR
01:20 15.6 °C 13.9 °C 1018.7 hPa Calm   4.7 km/h 90% 0.0 mm CLR
01:25 15.4 °C 13.8 °C 1018.6 hPa Calm   4.8 km/h 90% 0.0 mm CLR
01:30 15.3 °C 13.7 °C 1018.6 hPa Calm   3.2 km/h 90% 0.0 mm CLR
01:35 15.2 °C 13.7 °C 1018.6 hPa SW 1.6 km/h 3.2 km/h 91% 0.0 mm CLR
01:40 15.1 °C 13.7 °C 1018.7 hPa SW 1.6 km/h   91% 0.0 mm CLR
01:45 15.1 °C 13.7 °C 1018.7 hPa Calm   4.8 km/h 91% 0.0 mm CLR
01:50 15.0 °C 13.6 °C 1018.7 hPa Calm   3.2 km/h 91% 0.0 mm CLR
01:55 15.1 °C 13.8 °C 1018.6 hPa Calm   3.2 km/h 92% 0.0 mm CLR
02:00 15.0 °C 13.7 °C 1018.6 hPa Calm     92% 0.0 mm FEW
02:05 15.1 °C 13.8 °C 1018.6 hPa Calm   3.2 km/h 92% 0.0 mm CLR
02:10 15.1 °C 13.8 °C 1018.5 hPa Calm   4.8 km/h 92% 0.0 mm CLR
02:15 15.2 °C 13.9 °C 1018.5 hPa SE 3.2 km/h 8.0 km/h 92% 0.0 mm CLR
02:20 15.2 °C 13.9 °C 1018.5 hPa ESE 3.2 km/h 6.4 km/h 92% 0.0 mm CLR
02:25 15.2 °C 13.9 °C 1018.4 hPa SE 3.2 km/h 8.0 km/h 92% 0.0 mm CLR
02:30 15.1 °C 13.8 °C 1018.4 hPa SSE 3.2 km/h 8.0 km/h 92% 0.0 mm CLR
02:35 15.1 °C 13.8 °C 1018.4 hPa South 3.2 km/h 6.4 km/h 92% 0.0 mm CLR
02:40 15.1 °C 13.8 °C 1018.3 hPa SE 3.9 km/h 5.6 km/h 92% 0.0 mm CLR
02:45 15.0 °C 13.7 °C 1018.3 hPa South 3.2 km/h 8.0 km/h 92% 0.0 mm CLR
02:50 15.1 °C 14.0 °C 1018.3 hPa South 3.2 km/h 8.0 km/h 93% 0.0 mm CLR
02:55 15.1 °C 14.0 °C 1018.1 hPa South 3.2 km/h 8.0 km/h 93% 0.0 mm CLR
03:00 15.1 °C 14.0 °C 1018.1 hPa South 3.2 km/h 6.4 km/h 93% 0.0 mm FEW
03:05 15.1 °C 14.0 °C 1018.1 hPa SSW 3.2 km/h 6.4 km/h 93% 0.0 mm CLR
03:10 15.1 °C 13.8 °C 1017.9 hPa SSW 3.2 km/h 6.4 km/h 92% 0.0 mm CLR
03:15 15.1 °C 13.8 °C 1017.9 hPa South 3.2 km/h 3.2 km/h 92% 0.0 mm CLR
03:20 14.9 °C 13.6 °C 1017.9 hPa South 3.2 km/h 6.4 km/h 92% 0.0 mm CLR
03:25 14.8 °C 13.3 °C 1017.8 hPa South 3.2 km/h 6.4 km/h 91% 0.0 mm CLR
03:30 14.7 °C 13.4 °C 1017.8 hPa South 3.2 km/h 4.8 km/h 92% 0.0 mm CLR
03:35 14.7 °C 13.4 °C 1017.8 hPa South 3.2 km/h 3.2 km/h 92% 0.0 mm CLR
03:40 14.7 °C 13.3 °C 1017.6 hPa South 3.2 km/h 3.2 km/h 92% 0.0 mm CLR
03:45 14.6 °C 13.3 °C 1017.6 hPa Calm   3.2 km/h 92% 0.0 mm CLR
03:50 14.6 °C 13.3 °C 1017.6 hPa Calm   3.2 km/h 92% 0.0 mm CLR
03:55 14.6 °C 13.3 °C 1017.8 hPa SSE 1.6 km/h 4.8 km/h 92% 0.0 mm FEW
04:00 14.5 °C 13.2 °C 1017.8 hPa SE 1.6 km/h 4.8 km/h 92% 0.0 mm FEW
04:05 14.5 °C 13.2 °C 1017.8 hPa SSE 3.2 km/h 9.7 km/h 92% 0.0 mm FEW
04:10 14.5 °C 13.2 °C 1017.8 hPa South 3.2 km/h 9.7 km/h 92% 0.0 mm CLR
04:15 14.4 °C 13.1 °C 1017.8 hPa South 4.8 km/h 8.0 km/h 92% 0.0 mm FEW
04:20 14.4 °C 13.1 °C 1017.8 hPa South 4.8 km/h 8.0 km/h 92% 0.0 mm CLR
04:25 14.4 °C 13.1 °C 1017.7 hPa SSE 3.2 km/h 8.0 km/h 92% 0.0 mm CLR
04:30 14.3 °C 13.0 °C 1017.7 hPa SE 3.2 km/h 8.0 km/h 92% 0.0 mm CLR
04:35 14.2 °C 12.9 °C 1017.7 hPa SE 4.8 km/h 9.7 km/h 92% 0.0 mm CLR
04:40 14.1 °C 12.8 °C 1017.6 hPa SSE 4.8 km/h 9.7 km/h 92% 0.0 mm CLR
04:45 14.2 °C 13.1 °C 1017.6 hPa SSW 6.4 km/h 9.3 km/h 93% 0.0 mm CLR
04:50 14.2 °C 13.1 °C 1017.6 hPa SSW 8.0 km/h 9.7 km/h 93% 0.0 mm CLR
04:55 14.3 °C 13.2 °C 1017.6 hPa SSW 8.0 km/h 11.3 km/h 93% 0.0 mm CLR
05:00 14.3 °C 13.2 °C 1017.6 hPa SSW 8.0 km/h 11.3 km/h 93% 0.0 mm FEW
05:05 14.3 °C 13.2 °C 1017.6 hPa SSW 8.0 km/h 9.7 km/h 93% 0.0 mm CLR
05:10 14.4 °C 13.3 °C 1017.5 hPa SSW 8.0 km/h 8.0 km/h 93% 0.0 mm CLR
05:15 14.4 °C 13.3 °C 1017.5 hPa SSW 4.8 km/h 9.7 km/h 93% 0.0 mm CLR
05:20 14.4 °C 13.1 °C 1017.5 hPa SSW 4.8 km/h 9.7 km/h 92% 0.0 mm CLR
05:25 14.4 °C 13.1 °C 1017.6 hPa SSW 4.8 km/h 8.0 km/h 92% 0.0 mm CLR
05:30 14.4 °C 13.1 °C 1017.6 hPa SSW 4.8 km/h 8.0 km/h 92% 0.0 mm CLR
05:35 14.3 °C 13.0 °C 1017.6 hPa SSW 3.2 km/h 8.0 km/h 92% 0.0 mm CLR
05:40 14.3 °C 13.1 °C 1017.5 hPa SSW 3.2 km/h 8.0 km/h 92% 0.0 mm CLR
05:45 14.4 °C 13.1 °C 1017.5 hPa SSW 3.2 km/h 9.7 km/h 92% 0.0 mm CLR
05:50 14.4 °C 13.1 °C 1017.5 hPa SW 3.2 km/h 9.7 km/h 92% 0.0 mm CLR
05:55 14.4 °C 13.1 °C 1017.5 hPa SW 4.8 km/h 8.0 km/h 92% 0.0 mm CLR
06:00 14.3 °C 13.0 °C 1017.5 hPa SW 4.8 km/h 9.7 km/h 92% 0.0 mm FEW
06:05 14.3 °C 13.0 °C 1017.5 hPa SW 3.2 km/h 8.0 km/h 92% 0.0 mm CLR
06:10 14.3 °C 13.0 °C 1017.4 hPa SW 3.2 km/h 8.0 km/h 92% 0.0 mm CLR
06:15 14.3 °C 13.0 °C 1017.4 hPa SSW 3.2 km/h 8.0 km/h 92% 0.0 mm CLR
06:20 14.3 °C 13.0 °C 1017.4 hPa South 3.2 km/h 8.0 km/h 92% 0.0 mm CLR
06:25 14.2 °C 12.8 °C 1017.3 hPa South 4.8 km/h 8.0 km/h 91% 0.0 mm CLR
06:30 13.9 °C 12.4 °C 1017.3 hPa SSE 4.8 km/h 11.3 km/h 91% 0.0 mm RA
06:35 13.7 °C 12.3 °C 1017.3 hPa SSE 8.0 km/h 11.3 km/h 91% 0.3 mm RA
06:40 13.5 °C 12.2 °C 1017.6 hPa SSE 8.0 km/h 9.7 km/h 92% 0.0 mm
06:45 13.4 °C 12.1 °C 1017.6 hPa SSE 8.0 km/h 9.7 km/h 92% 0.0 mm
06:50 13.4 °C 12.1 °C 1017.6 hPa SSE 8.0 km/h 11.3 km/h 92% 0.0 mm
06:55 13.3 °C 12.0 °C 1017.5 hPa SSE 8.0 km/h 9.7 km/h 92% 0.0 mm
07:00 13.2 °C 12.1 °C 1017.5 hPa SSE 8.0 km/h 14.5 km/h 93% 0.0 mm FEW
07:05 13.3 °C 12.2 °C 1017.5 hPa SSE 8.0 km/h 9.7 km/h 93% 0.0 mm
07:10 13.3 °C 12.2 °C 1017.5 hPa South 8.0 km/h 8.0 km/h 93% 0.0 mm
07:15 13.3 °C 12.2 °C 1017.5 hPa South 8.0 km/h 9.7 km/h 93% 0.0 mm
07:20 13.3 °C 12.2 °C 1017.5 hPa SSE 8.0 km/h 9.7 km/h 93% 0.0 mm
07:25 13.4 °C 12.3 °C 1017.5 hPa SSE 4.8 km/h 9.7 km/h 93% 0.0 mm
07:30 13.4 °C 12.3 °C 1017.5 hPa South 4.8 km/h 9.7 km/h 93% 0.0 mm CLR
07:35 13.5 °C 12.4 °C 1017.5 hPa SSW 4.8 km/h 8.0 km/h 93% 0.0 mm CLR
07:40 13.6 °C 12.4 °C 1017.6 hPa SSW 4.8 km/h 8.0 km/h 93% 0.0 mm CLR
07:45 13.6 °C 12.5 °C 1017.6 hPa SSW 3.2 km/h 6.4 km/h 93% 0.0 mm CLR
07:50 13.7 °C 12.6 °C 1017.6 hPa SSW 3.2 km/h 6.4 km/h 93% 0.0 mm CLR
07:55 13.7 °C 12.6 °C 1017.6 hPa SSW 3.2 km/h 4.8 km/h 93% 0.0 mm CLR
08:00 13.8 °C 12.7 °C 1017.6 hPa SSW 3.2 km/h 3.2 km/h 93% 0.0 mm SCT
08:05 13.8 °C 12.7 °C 1017.6 hPa Calm   3.2 km/h 93% 0.0 mm CLR
08:10 13.8 °C 12.7 °C 1017.7 hPa Calm   3.2 km/h 93% 0.0 mm CLR
08:15 13.9 °C 12.6 °C 1017.7 hPa South 1.6 km/h   92% 0.0 mm CLR
08:20 13.9 °C 12.8 °C 1017.7 hPa South 1.6 km/h 6.4 km/h 93% 0.0 mm CLR
08:25 13.9 °C 12.7 °C 1017.8 hPa Calm   8.0 km/h 92% 0.0 mm CLR
08:30 14.2 °C 13.1 °C 1017.8 hPa Calm   9.7 km/h 93% 0.0 mm CLR
08:35 14.4 °C 13.3 °C 1017.8 hPa WSW 4.8 km/h 14.5 km/h 93% 0.0 mm CLR
08:40 14.6 °C 13.4 °C 1017.9 hPa WSW 4.8 km/h 9.7 km/h 93% 0.0 mm CLR
08:45 14.7 °C 13.6 °C 1017.9 hPa SW 8.0 km/h 9.7 km/h 93% 0.0 mm CLR
08:50 14.9 °C 13.8 °C 1017.9 hPa South 8.0 km/h 11.3 km/h 93% 0.0 mm CLR
08:55 15.0 °C 13.7 °C 1018.0 hPa South 8.0 km/h 11.3 km/h 92% 0.0 mm CLR
09:00 15.1 °C 13.8 °C 1018.0 hPa SSW 6.4 km/h 9.5 km/h 92% 0.0 mm CLR
09:05 15.2 °C 13.9 °C 1018.0 hPa South 8.0 km/h 12.9 km/h 92% 0.0 mm CLR
09:10 15.2 °C 13.9 °C 1018.2 hPa South 8.0 km/h 12.9 km/h 92% 0.0 mm CLR
09:15 15.2 °C 13.9 °C 1018.2 hPa SSW 8.0 km/h 9.7 km/h 92% 0.0 mm CLR
09:20 15.3 °C 13.8 °C 1018.2 hPa SSW 8.0 km/h 11.3 km/h 91% 0.0 mm CLR
09:25 15.3 °C 13.9 °C 1018.2 hPa South 8.0 km/h 11.3 km/h 91% 0.0 mm CLR
09:30 15.3 °C 13.8 °C 1018.2 hPa SSE 8.0 km/h 12.9 km/h 91% 0.0 mm CLR
09:35 15.3 °C 14.0 °C 1018.2 hPa SSE 8.0 km/h 14.5 km/h 92% 0.0 mm CLR
09:40 15.3 °C 14.1 °C 1018.5 hPa South 8.0 km/h 12.9 km/h 92% 0.0 mm CLR
09:45 15.4 °C 14.1 °C 1018.5 hPa South 9.7 km/h 11.3 km/h 92% 0.0 mm CLR
09:50 15.5 °C 14.2 °C 1018.5 hPa South 9.7 km/h 11.3 km/h 92% 0.0 mm CLR
09:55 15.6 °C 14.1 °C 1018.6 hPa South 8.0 km/h 11.3 km/h 91% 0.0 mm CLR
10:00 15.7 °C 14.3 °C 1018.6 hPa SSW 8.0 km/h 9.7 km/h 91% 0.0 mm CLR
10:05 15.9 °C 14.4 °C 1018.6 hPa South 8.0 km/h 9.7 km/h 91% 0.0 mm CLR
10:10 16.1 °C 14.4 °C 1018.3 hPa SSE 8.0 km/h 11.3 km/h 90% 0.0 mm CLR
10:15 16.3 °C 14.4 °C 1018.3 hPa SSE 8.0 km/h 11.3 km/h 89% 0.0 mm CLR
10:20 16.6 °C 14.6 °C 1018.3 hPa South 8.0 km/h 8.0 km/h 88% 0.0 mm CLR
10:25 16.7 °C 14.3 °C 1018.2 hPa SSW 4.8 km/h 11.3 km/h 86% 0.0 mm CLR
10:30 16.8 °C 14.2 °C 1018.2 hPa SW 4.8 km/h 9.7 km/h 85% 0.0 mm CLR
10:35 16.9 °C 14.3 °C 1018.2 hPa West 8.0 km/h 9.7 km/h 85% 0.0 mm CLR
10:40 17.1 °C 14.3 °C 1018.2 hPa WSW 8.0 km/h 8.0 km/h 84% 0.0 mm CLR
10:45 17.2 °C 14.3 °C 1018.2 hPa WSW 3.2 km/h 11.3 km/h 83% 0.0 mm CLR
10:50 17.3 °C 14.4 °C 1018.2 hPa West 3.2 km/h 8.0 km/h 83% 0.0 mm CLR
10:55 17.6 °C 14.7 °C 1018.2 hPa West 3.2 km/h 8.0 km/h 83% 0.0 mm CLR
11:00 17.8 °C 14.7 °C 1018.2 hPa SSW 3.2 km/h 8.0 km/h 82% 0.0 mm CLR
11:05 17.9 °C 14.6 °C 1018.2 hPa SSE 3.2 km/h 8.0 km/h 81% 0.0 mm CLR
11:10 18.2 °C 14.8 °C 1017.9 hPa SSE 3.2 km/h 8.0 km/h 81% 0.0 mm CLR
11:15 18.3 °C 14.8 °C 1017.9 hPa SE 3.2 km/h 8.0 km/h 80% 0.0 mm CLR
11:20 18.4 °C 14.7 °C 1017.9 hPa SSE 3.2 km/h 8.0 km/h 79% 0.0 mm CLR
11:25 18.4 °C 14.9 °C 1017.8 hPa SSW 3.2 km/h 8.0 km/h 80% 0.0 mm CLR
11:30 18.4 °C 14.9 °C 1017.8 hPa West 3.2 km/h 8.0 km/h 80% 0.0 mm CLR
11:35 18.6 °C 15.1 °C 1017.8 hPa West 3.2 km/h 8.0 km/h 80% 0.0 mm CLR
11:40 18.7 °C 15.0 °C 1017.9 hPa SW 3.2 km/h 8.0 km/h 79% 0.0 mm CLR
11:45 18.9 °C 15.2 °C 1017.9 hPa SW 3.2 km/h 1.6 km/h 79% 0.0 mm CLR
11:50 19.1 °C 15.2 °C 1017.9 hPa SSW 3.2 km/h 8.0 km/h 78% 0.0 mm CLR
11:55 19.1 °C 14.9 °C 1017.8 hPa WSW 3.2 km/h 8.0 km/h 77% 0.0 mm CLR
12:00 19.2 °C 15.1 °C 1017.8 hPa West 3.2 km/h 8.0 km/h 77% 0.0 mm CLR
12:05 19.2 °C 14.9 °C 1017.8 hPa West 3.2 km/h 11.3 km/h 76% 0.0 mm CLR
12:10 19.3 °C 14.9 °C 1017.7 hPa West 3.2 km/h 9.7 km/h 76% 0.0 mm CLR
12:15 19.3 °C 14.9 °C 1017.7 hPa West 4.8 km/h 11.3 km/h 76% 0.0 mm CLR
12:20 19.4 °C 15.1 °C 1017.7 hPa West 4.8 km/h 8.0 km/h 76% 0.0 mm CLR
12:25 19.6 °C 15.0 °C 1017.5 hPa West 3.2 km/h 8.0 km/h 75% 0.0 mm CLR
12:30 19.6 °C 14.8 °C 1017.5 hPa SW 3.2 km/h 9.7 km/h 74% 0.0 mm CLR
12:35 19.7 °C 14.9 °C 1017.5 hPa SSW 3.2 km/h 9.7 km/h 74% 0.0 mm CLR
12:40 19.7 °C 14.9 °C 1017.3 hPa SSW 3.2 km/h 8.0 km/h 74% 0.0 mm CLR
12:45 19.8 °C 15.1 °C 1017.3 hPa SW 4.8 km/h 9.7 km/h 74% 0.0 mm CLR
12:50 19.8 °C 14.8 °C 1017.3 hPa SW 4.8 km/h 9.7 km/h 73% 0.0 mm FEW
12:55 19.9 °C 14.9 °C 1017.1 hPa SW 3.2 km/h 9.7 km/h 73% 0.0 mm FEW
13:00 19.9 °C 14.9 °C 1017.1 hPa WSW 3.2 km/h 8.0 km/h 73% 0.0 mm CLR
13:05 20.1 °C 15.1 °C 1017.1 hPa SW 3.2 km/h 9.7 km/h 73% 0.0 mm FEW
13:10 20.2 °C 15.0 °C 1017.0 hPa SW 3.2 km/h 9.7 km/h 72% 0.0 mm FEW
13:15 20.2 °C 15.0 °C 1017.0 hPa West 4.8 km/h 9.7 km/h 72% 0.0 mm FEW
13:20 20.3 °C 15.1 °C 1017.0 hPa West 4.8 km/h 11.3 km/h 72% 0.0 mm FEW
13:25 20.3 °C 14.9 °C 1016.8 hPa WSW 4.8 km/h 11.3 km/h 71% 0.0 mm FEW
13:30 20.4 °C 14.9 °C 1016.8 hPa WSW 4.8 km/h 11.3 km/h 71% 0.0 mm FEW
13:35 20.4 °C 14.7 °C 1016.8 hPa WSW 4.8 km/h 11.3 km/h 70% 0.0 mm FEW
13:40 20.5 °C 15.1 °C 1016.6 hPa SW 4.8 km/h 11.3 km/h 71% 0.0 mm FEW
13:45 20.5 °C 14.8 °C 1016.6 hPa SSW 8.0 km/h 14.5 km/h 70% 0.0 mm FEW
13:50 20.4 °C 14.9 °C 1016.6 hPa SSW 8.0 km/h 9.7 km/h 71% 0.0 mm FEW
13:55 20.5 °C 15.1 °C 1016.5 hPa SSW 8.0 km/h 9.7 km/h 71% 0.0 mm FEW
14:00 20.6 °C 15.2 °C 1016.5 hPa SW 8.0 km/h 12.9 km/h 71% 0.0 mm CLR
14:05 20.6 °C 14.9 °C 1016.5 hPa SW 8.0 km/h 16.1 km/h 70% 0.0 mm FEW
14:10 20.5 °C 14.8 °C 1016.3 hPa SSW 8.0 km/h 12.9 km/h 70% 0.0 mm FEW
14:15 20.6 °C 14.9 °C 1016.3 hPa South 9.7 km/h 14.5 km/h 70% 0.0 mm FEW
14:20 20.6 °C 14.9 °C 1016.3 hPa SSW 9.7 km/h 12.9 km/h 70% 0.0 mm FEW
14:25 20.7 °C 15.0 °C 1016.0 hPa SSW 9.7 km/h 12.9 km/h 70% 0.0 mm FEW
14:30 20.7 °C 14.8 °C 1016.0 hPa SSW 9.7 km/h 9.7 km/h 69% 0.0 mm FEW
14:35 20.8 °C 15.1 °C 1016.0 hPa SSW 4.8 km/h 9.7 km/h 70% 0.0 mm FEW
14:40 20.8 °C 15.1 °C 1015.8 hPa South 4.8 km/h 9.7 km/h 70% 0.0 mm FEW
14:45 20.9 °C 15.2 °C 1015.8 hPa SSW 4.8 km/h 8.0 km/h 70% 0.0 mm FEW
14:50 20.9 °C 15.0 °C 1015.8 hPa South 4.8 km/h 11.3 km/h 69% 0.0 mm CLR
14:55 20.9 °C 15.0 °C 1015.5 hPa SSE 4.8 km/h 8.0 km/h 69% 0.0 mm CLR
15:00 20.9 °C 15.0 °C 1015.5 hPa South 4.8 km/h 8.0 km/h 69% 0.0 mm CLR
15:05 20.9 °C 15.1 °C 1015.5 hPa SW 3.2 km/h 8.0 km/h 69% 0.0 mm CLR
15:10 21.0 °C 15.1 °C 1015.4 hPa SSW 4.7 km/h 7.4 km/h 69% 0.0 mm CLR
15:15 21.0 °C 15.1 °C 1015.4 hPa SSW 3.2 km/h 8.0 km/h 69% 0.0 mm CLR
15:20 21.0 °C 15.1 °C 1015.4 hPa SSE 3.2 km/h 8.0 km/h 69% 0.0 mm CLR
15:25 21.0 °C 15.1 °C 1015.4 hPa WSW 3.2 km/h 9.7 km/h 69% 0.0 mm CLR
15:30 21.1 °C 15.2 °C 1015.4 hPa WNW 3.2 km/h 8.0 km/h 69% 0.0 mm CLR
15:35 21.2 °C 15.3 °C 1015.4 hPa West 4.8 km/h 9.7 km/h 69% 0.0 mm CLR
15:40 21.3 °C 15.4 °C 1015.4 hPa West 4.8 km/h 9.7 km/h 69% 0.0 mm CLR
15:45 21.4 °C 15.5 °C 1015.4 hPa West 4.8 km/h 8.0 km/h 69% 0.0 mm CLR
15:50 21.5 °C 15.3 °C 1015.4 hPa West 4.8 km/h 11.3 km/h 68% 0.0 mm CLR
15:55 21.4 °C 15.2 °C 1015.4 hPa West 4.8 km/h 9.7 km/h 68% 0.0 mm CLR
16:00 21.4 °C 15.2 °C 1015.4 hPa WNW 4.8 km/h 9.7 km/h 68% 0.0 mm CLR
16:05 21.4 °C 15.5 °C 1015.4 hPa WNW 3.2 km/h 3.2 km/h 69% 0.0 mm CLR
16:10 21.5 °C 15.6 °C 1015.4 hPa WNW 3.2 km/h 8.0 km/h 69% 0.0 mm CLR
16:15 21.5 °C 15.6 °C 1015.4 hPa NW 3.2 km/h 8.0 km/h 69% 0.0 mm CLR
16:20 21.6 °C 15.6 °C 1015.4 hPa NNW 3.2 km/h 3.2 km/h 69% 0.0 mm CLR
16:25 21.7 °C 15.8 °C 1015.4 hPa NW 1.6 km/h 4.8 km/h 69% 0.0 mm CLR
16:30 21.9 °C 15.7 °C 1015.4 hPa SE 1.6 km/h 8.0 km/h 68% 0.0 mm CLR
16:35 22.1 °C 15.7 °C 1015.4 hPa SSE 1.6 km/h 6.4 km/h 67% 0.0 mm CLR
16:40 22.0 °C 15.6 °C 1015.3 hPa SSE 1.6 km/h 9.7 km/h 67% 0.0 mm CLR
16:45 21.8 °C 15.4 °C 1015.3 hPa ESE 3.2 km/h 8.0 km/h 67% 0.0 mm CLR
16:50 21.8 °C 15.7 °C 1015.3 hPa ESE 3.2 km/h 4.8 km/h 68% 0.0 mm CLR
16:55 21.9 °C 15.5 °C 1015.2 hPa SE 3.2 km/h 8.0 km/h 67% 0.0 mm CLR
17:00 21.9 °C 15.7 °C 1015.2 hPa SSE 3.2 km/h 8.0 km/h 68% 0.0 mm CLR
17:05 22.1 °C 15.7 °C 1015.2 hPa SSW 3.2 km/h 8.0 km/h 67% 0.0 mm CLR
17:10 22.1 °C 15.7 °C 1015.1 hPa SSW 3.2 km/h 8.0 km/h 67% 0.0 mm CLR
17:15 22.1 °C 15.9 °C 1015.1 hPa South 3.2 km/h 4.8 km/h 68% 0.0 mm CLR
17:20 22.2 °C 15.7 °C 1015.1 hPa SSE 3.2 km/h 4.8 km/h 67% 0.0 mm CLR
17:25 22.2 °C 15.8 °C 1014.8 hPa Calm   8.0 km/h 67% 0.0 mm CLR
17:30 22.2 °C 16.0 °C 1014.8 hPa Calm   4.8 km/h 68% 0.0 mm CLR
17:35 22.0 °C 15.8 °C 1014.8 hPa SSE 3.2 km/h 8.0 km/h 68% 0.0 mm CLR
17:40 21.9 °C 15.8 °C 1014.8 hPa SSE 3.2 km/h 3.2 km/h 68% 0.0 mm CLR
17:45 21.9 °C 15.7 °C 1014.8 hPa SE 1.6 km/h 8.0 km/h 68% 0.0 mm CLR
17:50 21.7 °C 15.7 °C 1014.8 hPa ESE 1.6 km/h 8.0 km/h 69% 0.0 mm CLR
17:55 21.4 °C 15.7 °C 1014.9 hPa ESE 3.2 km/h 8.0 km/h 70% 0.0 mm CLR
18:00 21.2 °C 15.7 °C 1014.9 hPa ESE 3.2 km/h 8.0 km/h 71% 0.0 mm CLR
18:05 20.9 °C 15.7 °C 1014.9 hPa ESE 3.2 km/h 9.7 km/h 72% 0.0 mm CLR
18:10 20.6 °C 15.6 °C 1015.0 hPa ESE 3.2 km/h 9.7 km/h 73% 0.0 mm CLR
18:15 20.4 °C 15.6 °C 1015.0 hPa ESE 8.0 km/h 9.7 km/h 74% 0.0 mm CLR
18:20 20.2 °C 15.4 °C 1015.0 hPa ESE 8.0 km/h 11.3 km/h 74% 0.0 mm CLR
18:25 20.0 °C 15.4 °C 1015.0 hPa ESE 8.0 km/h 9.7 km/h 75% 0.0 mm CLR
18:30 19.9 °C 15.6 °C 1015.0 hPa ESE 8.0 km/h 8.0 km/h 76% 0.0 mm CLR
18:35 19.8 °C 15.4 °C 1015.0 hPa ESE 4.8 km/h 8.0 km/h 76% 0.0 mm CLR
18:40 19.7 °C 15.6 °C 1015.0 hPa ESE 5.0 km/h 5.6 km/h 77% 0.0 mm CLR
18:45 19.6 °C 15.4 °C 1015.0 hPa ESE 4.8 km/h 8.0 km/h 77% 0.0 mm CLR
18:50 19.4 °C 15.4 °C 1015.0 hPa ESE 5.0 km/h 7.4 km/h 78% 0.0 mm CLR
18:55 19.4 °C 15.4 °C 1015.0 hPa ESE 3.2 km/h 8.0 km/h 78% 0.0 mm CLR
19:00 19.3 °C 15.4 °C 1015.0 hPa ESE 3.2 km/h 9.7 km/h 78% 0.0 mm CLR
19:05 19.2 °C 15.4 °C 1015.0 hPa ESE 4.8 km/h 9.7 km/h 79% 0.0 mm CLR
19:10 19.1 °C 15.4 °C 1015.2 hPa ESE 4.8 km/h 8.0 km/h 79% 0.0 mm CLR
19:15 19.1 °C 15.4 °C 1015.2 hPa ESE 4.8 km/h 9.7 km/h 79% 0.0 mm CLR
19:20 19.0 °C 15.3 °C 1015.2 hPa East 5.0 km/h 7.4 km/h 79% 0.0 mm CLR
19:25 19.0 °C 15.3 °C 1015.3 hPa ESE 4.8 km/h 9.7 km/h 79% 0.0 mm CLR
19:30 18.9 °C 15.2 °C 1015.3 hPa SE 4.8 km/h 8.0 km/h 79% 0.0 mm CLR
19:35 18.9 °C 15.2 °C 1015.3 hPa SE 4.8 km/h 8.0 km/h 79% 0.0 mm CLR
19:40 18.8 °C 15.3 °C 1015.3 hPa SE 4.8 km/h 8.0 km/h 80% 0.0 mm CLR
19:45 18.8 °C 15.3 °C 1015.3 hPa SSE 3.2 km/h 8.0 km/h 80% 0.0 mm CLR
19:50 18.8 °C 15.3 °C 1015.3 hPa SW 3.2 km/h 8.0 km/h 80% 0.0 mm CLR
19:55 18.7 °C 15.2 °C 1015.3 hPa West 3.2 km/h 4.8 km/h 80% 0.0 mm CLR
20:00 18.7 °C 15.3 °C 1015.3 hPa West 3.2 km/h   81% 0.0 mm CLR
20:05 18.6 °C 15.3 °C 1015.3 hPa Calm     81% 0.0 mm CLR
20:10 18.5 °C 15.4 °C 1015.3 hPa Calm   3.2 km/h 82% 0.0 mm CLR
20:15 18.4 °C 15.3 °C 1015.3 hPa Calm   3.2 km/h 82% 0.0 mm CLR
20:20 18.4 °C 15.3 °C 1015.3 hPa Calm   8.0 km/h 82% 0.0 mm CLR
20:25 18.5 °C 15.4 °C 1015.4 hPa SSW 3.2 km/h 8.0 km/h 82% 0.0 mm CLR
20:30 18.5 °C 15.4 °C 1015.4 hPa SSW 3.2 km/h 8.0 km/h 82% 0.0 mm CLR
20:35 18.5 °C 15.6 °C 1015.4 hPa SW 4.7 km/h 5.6 km/h 83% 0.0 mm CLR
20:40 18.5 °C 15.6 °C 1015.4 hPa SW 3.2 km/h 8.0 km/h 83% 0.0 mm CLR
20:45 18.4 °C 15.4 °C 1015.4 hPa SSW 3.2 km/h 8.0 km/h 83% 0.0 mm CLR
20:50 18.4 °C 15.4 °C 1015.4 hPa South 3.2 km/h 8.0 km/h 83% 0.0 mm CLR
20:55 18.3 °C 15.6 °C 1015.3 hPa SSW 4.8 km/h 9.7 km/h 84% 0.0 mm CLR
21:00 18.2 °C 15.4 °C 1015.3 hPa SSW 4.8 km/h 8.0 km/h 84% 0.0 mm CLR
21:05 18.2 °C 15.4 °C 1015.3 hPa SSW 4.8 km/h 8.0 km/h 84% 0.0 mm CLR
21:10 18.1 °C 15.3 °C 1015.4 hPa South 4.8 km/h 3.2 km/h 84% 0.0 mm CLR
21:15 18.0 °C 15.3 °C 1015.4 hPa South 1.6 km/h 3.2 km/h 84% 0.0 mm CLR
21:20 18.0 °C 15.4 °C 1015.4 hPa South 1.6 km/h 6.4 km/h 85% 0.0 mm CLR
21:25 17.9 °C 15.4 °C 1015.5 hPa SSW 3.2 km/h 8.0 km/h 85% 0.0 mm CLR
21:30 17.9 °C 15.3 °C 1015.5 hPa SSW 3.2 km/h 8.0 km/h 85% 0.0 mm CLR
21:35 17.9 °C 15.5 °C 1015.5 hPa SSW 3.2 km/h 8.0 km/h 86% 0.0 mm CLR
21:40 17.9 °C 15.5 °C 1015.6 hPa South 3.2 km/h 8.0 km/h 86% 0.0 mm CLR
21:45 17.8 °C 15.4 °C 1015.6 hPa SE 3.2 km/h 8.0 km/h 86% 0.0 mm CLR
21:50 17.7 °C 15.3 °C 1015.6 hPa SE 3.2 km/h 8.0 km/h 86% 0.0 mm CLR
21:55 17.7 °C 15.3 °C 1015.8 hPa SSE 3.2 km/h 8.0 km/h 86% 0.0 mm CLR
22:00 17.6 °C 15.2 °C 1015.8 hPa SSE 3.2 km/h 4.8 km/h 86% 0.0 mm CLR
22:05 17.6 °C 15.4 °C 1015.8 hPa SSE 3.2 km/h 4.8 km/h 87% 0.0 mm CLR
22:10 17.6 °C 15.2 °C 1015.7 hPa SSE 3.2 km/h 1.6 km/h 86% 0.0 mm CLR
22:15 17.5 °C 15.1 °C 1015.7 hPa SSE 1.6 km/h 4.8 km/h 86% 0.0 mm CLR
22:20 17.4 °C 15.1 °C 1015.7 hPa SSE 1.6 km/h 8.0 km/h 86% 0.0 mm CLR
22:25 17.3 °C 15.1 °C 1015.8 hPa SSE 3.2 km/h 8.0 km/h 87% 0.0 mm CLR
22:30 17.2 °C 15.0 °C 1015.8 hPa SSE 3.2 km/h 4.8 km/h 87% 0.0 mm CLR
22:35 17.2 °C 15.2 °C 1015.8 hPa South 3.2 km/h 8.0 km/h 88% 0.0 mm CLR
22:40 17.2 °C 15.2 °C 1015.7 hPa SSW 3.2 km/h 9.7 km/h 88% 0.0 mm CLR
22:45 17.2 °C 15.2 °C 1015.7 hPa WSW 4.7 km/h 7.4 km/h 88% 0.0 mm CLR
22:50 17.2 °C 15.2 °C 1015.7 hPa WSW 3.2 km/h 9.7 km/h 88% 0.0 mm CLR
22:55 17.1 °C 15.1 °C 1015.7 hPa SW 4.8 km/h 8.0 km/h 88% 0.0 mm CLR
23:00 17.1 °C 15.1 °C 1015.7 hPa SSW 4.8 km/h 8.0 km/h 88% 0.0 mm CLR
23:05 17.1 °C 15.1 °C 1015.7 hPa SSW 4.8 km/h 9.7 km/h 88% 0.0 mm CLR
23:10 17.0 °C 15.0 °C 1015.7 hPa South 4.8 km/h 8.0 km/h 88% 0.0 mm CLR
23:15 16.9 °C 14.9 °C 1015.7 hPa South 4.8 km/h 8.0 km/h 88% 0.0 mm CLR
23:20 16.8 °C 14.8 °C 1015.7 hPa South 4.8 km/h 8.0 km/h 88% 0.0 mm CLR
23:25 16.7 °C 14.7 °C 1015.6 hPa South 4.8 km/h 8.0 km/h 88% 0.0 mm CLR
23:30 16.7 °C 14.9 °C 1015.6 hPa SSE 4.8 km/h 8.0 km/h 89% 0.0 mm CLR
23:35 16.6 °C 14.8 °C 1015.6 hPa SSE 4.8 km/h 6.4 km/h 89% 0.0 mm CLR
23:40 16.6 °C 14.8 °C 1015.6 hPa SSE 4.8 km/h 8.0 km/h 89% 0.0 mm CLR
23:45 16.5 °C 14.7 °C 1015.6 hPa SSE 3.2 km/h 8.0 km/h 89% 0.0 mm CLR
23:50 16.5 °C 14.7 °C 1015.6 hPa SSE 3.2 km/h 8.0 km/h 89% 0.0 mm CLR
23:55 16.5 °C 14.8 °C 1015.6 hPa South 3.2 km/h 8.0 km/h 90% 0.0 mm CLR
Murcia-Puente Tocinos, España
Compliments of Weather Underground - 2.75 mb

La estación de MeteoMurcia.com, publica sus datos en los siguientes proyectos:

Weather Underground PWS IMURCIAP2 Meteoclimatic www.awekas.at

W3Counter
Web Analytics